createdAt,value
2017-10-14T00:00:25.290Z,15.68
2017-10-14T00:01:05.826Z,15.69
2017-10-14T00:01:46.364Z,15.67
2017-10-14T00:02:26.896Z,15.72
2017-10-14T00:03:07.434Z,15.64
2017-10-14T00:03:47.967Z,15.71
2017-10-14T00:04:28.498Z,15.68
2017-10-14T00:05:09.039Z,15.6
2017-10-14T00:05:49.560Z,15.65
2017-10-14T00:06:30.102Z,15.65
2017-10-14T00:07:10.619Z,15.53
2017-10-14T00:07:51.213Z,15.46
2017-10-14T00:08:31.753Z,15.49
2017-10-14T00:09:12.292Z,15.46
2017-10-14T00:09:52.830Z,15.41
2017-10-14T00:10:33.366Z,15.44
2017-10-14T00:11:13.981Z,15.35
2017-10-14T00:11:54.516Z,15.27
2017-10-14T00:12:35.055Z,15.32
2017-10-14T00:13:15.613Z,15.38
2017-10-14T00:13:56.162Z,15.29
2017-10-14T00:14:36.699Z,15.25
2017-10-14T00:15:17.222Z,15.29
2017-10-14T00:15:57.758Z,15.27
2017-10-14T00:16:38.293Z,15.34
2017-10-14T00:17:18.830Z,15.23
2017-10-14T00:17:59.412Z,15.2
2017-10-14T00:18:39.924Z,15.21
2017-10-14T00:19:20.464Z,15.23
2017-10-14T00:20:01.003Z,15.21
2017-10-14T00:20:41.538Z,15.14
2017-10-14T00:21:22.077Z,15.14
2017-10-14T00:22:02.623Z,15.1
2017-10-14T00:22:43.162Z,15.13
2017-10-14T00:23:23.700Z,15.1
2017-10-14T00:24:04.248Z,15.03
2017-10-14T00:24:44.777Z,15.07
2017-10-14T00:25:25.318Z,15.03
2017-10-14T00:26:05.868Z,15.11
2017-10-14T00:26:46.404Z,15.02
2017-10-14T00:27:26.929Z,15.02
2017-10-14T00:28:07.463Z,15.11
2017-10-14T00:28:48.001Z,15.02
2017-10-14T00:29:28.547Z,14.95
2017-10-14T00:30:09.084Z,14.99
2017-10-14T00:30:49.618Z,14.96
2017-10-14T00:31:30.195Z,14.92
2017-10-14T00:32:10.735Z,14.98
2017-10-14T00:32:51.274Z,14.95
2017-10-14T00:33:31.816Z,14.92
2017-10-14T00:34:12.355Z,14.95
2017-10-14T00:34:52.883Z,14.96
2017-10-14T00:35:33.437Z,14.95
2017-10-14T00:36:13.965Z,14.84
2017-10-14T00:36:54.492Z,14.83
2017-10-14T00:37:35.022Z,14.83
2017-10-14T00:38:15.560Z,14.84
2017-10-14T00:38:56.098Z,14.83
2017-10-14T00:39:36.628Z,14.78
2017-10-14T00:40:17.168Z,14.75
2017-10-14T00:40:57.693Z,14.8
2017-10-14T00:41:38.232Z,14.86
2017-10-14T00:42:18.766Z,14.8
2017-10-14T00:42:59.331Z,14.8
2017-10-14T00:43:39.850Z,14.77
2017-10-14T00:44:20.383Z,14.78
2017-10-14T00:45:00.921Z,14.78
2017-10-14T00:45:41.459Z,14.73
2017-10-14T00:46:21.996Z,14.81
2017-10-14T00:47:02.526Z,14.78
2017-10-14T00:47:43.053Z,14.81
2017-10-14T00:48:23.592Z,14.77
2017-10-14T00:49:04.146Z,14.72
2017-10-14T00:49:44.673Z,14.69
2017-10-14T00:50:25.213Z,14.75
2017-10-14T00:51:05.749Z,14.75
2017-10-14T00:51:46.291Z,14.7
2017-10-14T00:52:26.831Z,14.7
2017-10-14T00:53:07.357Z,14.61
2017-10-14T00:53:47.886Z,14.62
2017-10-14T00:54:28.427Z,14.58
2017-10-14T00:55:08.968Z,14.62
2017-10-14T00:55:49.506Z,14.55
2017-10-14T00:56:30.035Z,14.55
2017-10-14T00:57:10.566Z,14.54
2017-10-14T00:57:51.102Z,14.47
2017-10-14T00:58:31.642Z,14.52
2017-10-14T00:59:12.180Z,14.46
2017-10-14T00:59:52.718Z,14.43
2017-10-14T01:00:33.259Z,14.43
2017-10-14T01:01:13.796Z,14.46
2017-10-14T01:01:54.334Z,14.45
2017-10-14T01:02:34.865Z,14.43
2017-10-14T01:03:15.398Z,14.39
2017-10-14T01:03:55.962Z,14.4
2017-10-14T01:04:36.501Z,14.36
2017-10-14T01:05:17.032Z,14.4
2017-10-14T01:05:57.573Z,14.33
2017-10-14T01:06:38.115Z,14.33
2017-10-14T01:07:18.713Z,14.28
2017-10-14T01:07:59.251Z,14.32
2017-10-14T01:08:39.794Z,14.25
2017-10-14T01:09:20.329Z,14.33
2017-10-14T01:10:00.866Z,14.32
2017-10-14T01:10:41.406Z,14.24
2017-10-14T01:11:21.920Z,14.25
2017-10-14T01:12:02.479Z,14.28
2017-10-14T01:12:43.000Z,14.2
2017-10-14T01:13:23.533Z,14.33
2017-10-14T01:14:04.075Z,14.22
2017-10-14T01:14:44.609Z,14.35
2017-10-14T01:15:25.145Z,14.25
2017-10-14T01:16:08.382Z,14.24
2017-10-14T01:16:48.919Z,14.22
2017-10-14T01:17:29.454Z,14.24
2017-10-14T01:18:09.989Z,14.22
2017-10-14T01:18:50.521Z,14.21
2017-10-14T01:19:31.073Z,14.21
2017-10-14T01:20:11.621Z,14.24
2017-10-14T01:20:52.176Z,14.25
2017-10-14T01:21:32.705Z,14.27
2017-10-14T01:22:13.243Z,14.22
2017-10-14T01:22:53.783Z,14.24
2017-10-14T01:23:34.323Z,14.22
2017-10-14T01:24:14.861Z,14.2
2017-10-14T01:24:55.399Z,14.21
2017-10-14T01:25:35.927Z,14.24
2017-10-14T01:26:16.455Z,14.15
2017-10-14T01:26:56.992Z,14.2
2017-10-14T01:27:37.536Z,14.24
2017-10-14T01:28:18.071Z,14.24
2017-10-14T01:28:58.613Z,14.15
2017-10-14T01:29:39.151Z,14.25
2017-10-14T01:30:19.681Z,14.24
2017-10-14T01:31:00.222Z,14.15
2017-10-14T01:31:40.755Z,14.21
2017-10-14T01:32:21.290Z,14.24
2017-10-14T01:33:01.853Z,14.21
2017-10-14T01:33:42.391Z,14.2
2017-10-14T01:34:22.911Z,14.15
2017-10-14T01:35:03.463Z,14.15
2017-10-14T01:35:44.006Z,14.24
2017-10-14T01:36:24.543Z,14.21
2017-10-14T01:37:05.073Z,14.2
2017-10-14T01:37:45.605Z,14.15
2017-10-14T01:38:26.162Z,14.2
2017-10-14T01:39:06.700Z,14.2
2017-10-14T01:39:47.234Z,14.15
2017-10-14T01:40:27.763Z,14.21
2017-10-14T01:41:08.299Z,14.1
2017-10-14T01:41:48.833Z,14.24
2017-10-14T01:42:31.202Z,14.17
2017-10-14T01:43:11.742Z,14.14
2017-10-14T01:43:52.279Z,14.22
2017-10-14T01:44:32.810Z,14.2
2017-10-14T01:45:13.353Z,14.18
2017-10-14T01:45:53.879Z,14.14
2017-10-14T01:46:34.418Z,14.15
2017-10-14T01:47:14.958Z,14.18
2017-10-14T01:47:55.485Z,14.15
2017-10-14T01:48:36.008Z,14.2
2017-10-14T01:49:16.554Z,14.15
2017-10-14T01:49:57.063Z,14.15
2017-10-14T01:50:37.599Z,14.18
2017-10-14T01:51:18.139Z,14.15
2017-10-14T01:51:58.677Z,14.09
2017-10-14T01:52:39.211Z,14.14
2017-10-14T01:53:19.745Z,14.14
2017-10-14T01:54:00.286Z,14.17
2017-10-14T01:54:40.824Z,14.14
2017-10-14T01:55:21.363Z,14.17
2017-10-14T01:56:01.896Z,14.18
2017-10-14T01:56:42.434Z,14.18
2017-10-14T01:57:22.968Z,14.12
2017-10-14T01:58:03.505Z,14.12
2017-10-14T01:58:44.040Z,14.12
2017-10-14T01:59:24.576Z,14.17
2017-10-14T02:00:05.115Z,14.14
2017-10-14T02:00:45.655Z,14.14
2017-10-14T02:01:26.197Z,14.17
2017-10-14T02:02:06.730Z,14.14
2017-10-14T02:02:47.267Z,14.17
2017-10-14T02:03:27.806Z,14.17
2017-10-14T02:04:08.338Z,14.12
2017-10-14T02:04:48.879Z,14.07
2017-10-14T02:05:29.412Z,14.17
2017-10-14T02:06:09.955Z,14.2
2017-10-14T02:06:50.490Z,14.06
2017-10-14T02:07:31.028Z,14.03
2017-10-14T02:08:11.566Z,14.14
2017-10-14T02:08:52.090Z,14.17
2017-10-14T02:09:32.623Z,14.14
2017-10-14T02:10:13.156Z,14.07
2017-10-14T02:10:53.684Z,14.06
2017-10-14T02:11:34.213Z,14.17
2017-10-14T02:12:14.752Z,14.07
2017-10-14T02:12:55.321Z,14.04
2017-10-14T02:13:35.853Z,14.1
2017-10-14T02:14:16.388Z,14.04
2017-10-14T02:14:56.926Z,14.1
2017-10-14T02:15:37.469Z,14.04
2017-10-14T02:16:18.003Z,14.09
2017-10-14T02:16:58.532Z,14.04
2017-10-14T02:17:39.064Z,14.14
2017-10-14T02:18:19.619Z,14.18
2017-10-14T02:19:00.150Z,14.06
2017-10-14T02:19:40.687Z,14.03
2017-10-14T02:20:21.224Z,14.07
2017-10-14T02:21:01.763Z,14.06
2017-10-14T02:21:42.300Z,14.02
2017-10-14T02:22:22.833Z,14.02
2017-10-14T02:23:03.388Z,14.1
2017-10-14T02:23:43.899Z,14.07
2017-10-14T02:24:24.433Z,14.06
2017-10-14T02:25:04.971Z,14.02
2017-10-14T02:25:45.493Z,13.97
2017-10-14T02:26:26.032Z,14.06
2017-10-14T02:27:06.596Z,14.04
2017-10-14T02:27:47.143Z,14
2017-10-14T02:28:27.679Z,14.03
2017-10-14T02:29:08.211Z,14.03
2017-10-14T02:29:48.756Z,14
2017-10-14T02:30:29.294Z,14
2017-10-14T02:31:09.840Z,14.03
2017-10-14T02:31:50.356Z,13.97
2017-10-14T02:32:30.890Z,14.03
2017-10-14T02:33:11.443Z,13.95
2017-10-14T02:33:51.985Z,13.97
2017-10-14T02:34:32.517Z,14
2017-10-14T02:35:13.058Z,13.96
2017-10-14T02:35:53.613Z,13.91
2017-10-14T02:36:34.124Z,13.99
2017-10-14T02:37:14.668Z,13.91
2017-10-14T02:37:55.199Z,13.91
2017-10-14T02:38:35.744Z,13.91
2017-10-14T02:39:16.274Z,13.96
2017-10-14T02:39:56.802Z,13.88
2017-10-14T02:40:37.340Z,13.89
2017-10-14T02:41:17.926Z,13.96
2017-10-14T02:41:58.468Z,13.85
2017-10-14T02:42:39.001Z,13.79
2017-10-14T02:43:19.545Z,13.91
2017-10-14T02:44:00.080Z,13.88
2017-10-14T02:44:40.614Z,13.91
2017-10-14T02:45:21.198Z,13.87
2017-10-14T02:46:01.720Z,13.91
2017-10-14T02:46:42.256Z,13.87
2017-10-14T02:47:22.803Z,13.85
2017-10-14T02:48:03.356Z,13.91
2017-10-14T02:48:43.874Z,13.96
2017-10-14T02:49:24.404Z,13.82
2017-10-14T02:50:04.940Z,13.85
2017-10-14T02:50:45.490Z,13.84
2017-10-14T02:51:26.212Z,13.85
2017-10-14T02:52:07.741Z,13.79
2017-10-14T02:52:48.715Z,13.81
2017-10-14T02:53:29.201Z,13.84
2017-10-14T02:54:09.750Z,13.81
2017-10-14T02:54:50.277Z,13.82
2017-10-14T02:55:30.801Z,13.69
2017-10-14T02:56:11.342Z,13.71
2017-10-14T02:56:51.878Z,13.73
2017-10-14T02:57:32.407Z,13.7
2017-10-14T02:58:12.947Z,13.66
2017-10-14T02:58:53.479Z,13.71
2017-10-14T02:59:34.010Z,13.67
2017-10-14T03:00:14.546Z,13.67
2017-10-14T03:00:55.080Z,13.77
2017-10-14T03:01:35.611Z,13.66
2017-10-14T03:02:16.155Z,13.69
2017-10-14T03:02:56.682Z,13.64
2017-10-14T03:03:37.221Z,13.69
2017-10-14T03:04:17.758Z,13.78
2017-10-14T03:04:58.298Z,13.82
2017-10-14T03:05:38.834Z,13.85
2017-10-14T03:06:19.378Z,13.81
2017-10-14T03:06:59.905Z,13.78
2017-10-14T03:07:40.446Z,13.87
2017-10-14T03:08:20.973Z,13.79
2017-10-14T03:09:01.509Z,13.79
2017-10-14T03:09:42.051Z,13.79
2017-10-14T03:10:22.588Z,13.84
2017-10-14T03:11:03.119Z,13.82
2017-10-14T03:11:43.655Z,13.78
2017-10-14T03:12:24.190Z,13.82
2017-10-14T03:13:04.718Z,13.81
2017-10-14T03:13:45.251Z,13.77
2017-10-14T03:14:25.787Z,13.85
2017-10-14T03:15:06.336Z,13.81
2017-10-14T03:15:46.872Z,13.81
2017-10-14T03:16:27.401Z,13.77
2017-10-14T03:17:07.941Z,13.7
2017-10-14T03:17:48.481Z,13.73
2017-10-14T03:18:29.042Z,13.77
2017-10-14T03:19:09.726Z,13.73
2017-10-14T03:19:50.267Z,13.73
2017-10-14T03:20:30.811Z,13.71
2017-10-14T03:21:11.483Z,13.71
2017-10-14T03:21:52.015Z,13.69
2017-10-14T03:22:32.553Z,13.67
2017-10-14T03:23:13.094Z,13.71
2017-10-14T03:23:53.636Z,13.69
2017-10-14T03:24:34.162Z,13.71
2017-10-14T03:25:14.716Z,13.71
2017-10-14T03:25:55.239Z,13.7
2017-10-14T03:26:35.777Z,13.71
2017-10-14T03:27:16.315Z,13.67
2017-10-14T03:27:56.847Z,13.73
2017-10-14T03:28:37.382Z,13.79
2017-10-14T03:29:17.926Z,13.7
2017-10-14T03:29:58.466Z,13.78
2017-10-14T03:30:38.993Z,13.81
2017-10-14T03:31:19.529Z,13.67
2017-10-14T03:32:00.236Z,13.81
2017-10-14T03:32:40.776Z,13.79
2017-10-14T03:33:21.297Z,13.82
2017-10-14T03:34:01.829Z,13.79
2017-10-14T03:34:42.369Z,13.78
2017-10-14T03:35:22.903Z,13.73
2017-10-14T03:36:03.445Z,13.79
2017-10-14T03:36:43.978Z,13.81
2017-10-14T03:37:24.518Z,13.82
2017-10-14T03:38:05.039Z,13.77
2017-10-14T03:38:45.583Z,13.82
2017-10-14T03:39:26.110Z,13.67
2017-10-14T03:40:06.645Z,13.7
2017-10-14T03:40:47.183Z,13.77
2017-10-14T03:41:27.705Z,13.78
2017-10-14T03:42:08.250Z,13.75
2017-10-14T03:42:48.777Z,13.81
2017-10-14T03:43:29.326Z,13.77
2017-10-14T03:44:09.853Z,13.77
2017-10-14T03:44:50.384Z,13.75
2017-10-14T03:45:30.923Z,13.67
2017-10-14T03:46:11.461Z,13.67
2017-10-14T03:46:51.993Z,13.75
2017-10-14T03:47:32.538Z,13.71
2017-10-14T03:48:13.068Z,13.79
2017-10-14T03:48:53.607Z,13.69
2017-10-14T03:49:34.179Z,13.66
2017-10-14T03:50:14.705Z,13.73
2017-10-14T03:50:55.260Z,13.71
2017-10-14T03:51:35.798Z,13.73
2017-10-14T03:52:16.343Z,13.73
2017-10-14T03:52:56.878Z,13.71
2017-10-14T03:53:37.418Z,13.67
2017-10-14T03:54:17.957Z,13.69
2017-10-14T03:54:58.495Z,13.67
2017-10-14T03:55:39.038Z,13.66
2017-10-14T03:56:19.568Z,13.6
2017-10-14T03:57:00.099Z,13.57
2017-10-14T03:57:40.639Z,13.62
2017-10-14T03:58:21.170Z,13.66
2017-10-14T03:59:01.715Z,13.57
2017-10-14T03:59:42.271Z,13.57
2017-10-14T04:00:22.806Z,13.55
2017-10-14T04:01:03.336Z,13.57
2017-10-14T04:01:43.872Z,13.62
2017-10-14T04:02:24.408Z,13.59
2017-10-14T04:03:04.955Z,13.66
2017-10-14T04:03:45.488Z,13.59
2017-10-14T04:04:26.020Z,13.59
2017-10-14T04:05:06.556Z,13.54
2017-10-14T04:05:47.094Z,13.59
2017-10-14T04:06:27.638Z,13.6
2017-10-14T04:07:08.177Z,13.57
2017-10-14T04:07:48.704Z,13.57
2017-10-14T04:08:29.242Z,13.57
2017-10-14T04:09:09.771Z,13.6
2017-10-14T04:09:50.310Z,13.55
2017-10-14T04:10:30.847Z,13.55
2017-10-14T04:11:11.395Z,13.57
2017-10-14T04:11:51.965Z,13.51
2017-10-14T04:12:32.505Z,13.57
2017-10-14T04:13:13.042Z,13.54
2017-10-14T04:13:53.584Z,13.57
2017-10-14T04:14:34.111Z,13.55
2017-10-14T04:15:14.646Z,13.51
2017-10-14T04:15:55.185Z,13.51
2017-10-14T04:16:35.734Z,13.54
2017-10-14T04:17:16.278Z,13.52
2017-10-14T04:17:56.825Z,13.55
2017-10-14T04:18:37.527Z,13.52
2017-10-14T04:19:18.052Z,13.54
2017-10-14T04:19:58.631Z,13.49
2017-10-14T04:20:39.336Z,13.52
2017-10-14T04:21:19.866Z,13.55
2017-10-14T04:22:00.425Z,13.59
2017-10-14T04:22:40.995Z,13.45
2017-10-14T04:23:21.524Z,13.41
2017-10-14T04:24:02.051Z,13.45
2017-10-14T04:24:42.579Z,13.59
2017-10-14T04:25:23.106Z,13.44
2017-10-14T04:26:03.647Z,13.41
2017-10-14T04:26:44.197Z,13.42
2017-10-14T04:27:24.734Z,13.39
2017-10-14T04:28:05.262Z,13.44
2017-10-14T04:28:45.809Z,13.38
2017-10-14T04:29:26.353Z,13.45
2017-10-14T04:30:06.864Z,13.38
2017-10-14T04:30:47.398Z,13.42
2017-10-14T04:31:27.952Z,13.42
2017-10-14T04:32:08.496Z,13.45
2017-10-14T04:32:49.018Z,13.41
2017-10-14T04:33:29.553Z,13.41
2017-10-14T04:34:10.105Z,13.41
2017-10-14T04:34:50.615Z,13.42
2017-10-14T04:35:31.148Z,13.42
2017-10-14T04:36:11.725Z,13.42
2017-10-14T04:36:52.237Z,13.44
2017-10-14T04:37:32.772Z,13.39
2017-10-14T04:38:13.335Z,13.42
2017-10-14T04:38:53.864Z,13.42
2017-10-14T04:39:34.377Z,13.42
2017-10-14T04:40:14.922Z,13.38
2017-10-14T04:40:55.439Z,13.45
2017-10-14T04:41:35.975Z,13.45
2017-10-14T04:42:16.499Z,13.41
2017-10-14T04:42:57.063Z,13.45
2017-10-14T04:43:37.603Z,13.38
2017-10-14T04:44:18.189Z,13.44
2017-10-14T04:44:58.752Z,13.42
2017-10-14T04:45:39.295Z,13.39
2017-10-14T04:46:19.830Z,13.39
2017-10-14T04:47:00.366Z,13.44
2017-10-14T04:47:40.901Z,13.38
2017-10-14T04:48:21.438Z,13.36
2017-10-14T04:49:01.979Z,13.36
2017-10-14T04:49:42.529Z,13.3
2017-10-14T04:50:23.058Z,13.36
2017-10-14T04:51:03.611Z,13.33
2017-10-14T04:51:44.147Z,13.33
2017-10-14T04:52:24.690Z,13.33
2017-10-14T04:53:05.240Z,13.3
2017-10-14T04:53:45.766Z,13.44
2017-10-14T04:54:26.290Z,13.29
2017-10-14T04:55:06.851Z,13.36
2017-10-14T04:55:47.385Z,13.29
2017-10-14T04:56:27.921Z,13.3
2017-10-14T04:57:08.460Z,13.33
2017-10-14T04:57:48.989Z,13.39
2017-10-14T04:58:29.528Z,13.36
2017-10-14T04:59:10.060Z,13.41
2017-10-14T04:59:50.593Z,13.3
2017-10-14T05:00:31.118Z,13.32
2017-10-14T05:01:11.653Z,13.3
2017-10-14T05:01:52.193Z,13.28
2017-10-14T05:02:32.731Z,13.3
2017-10-14T05:03:13.246Z,13.33
2017-10-14T05:03:53.781Z,13.28
2017-10-14T05:04:34.329Z,13.28
2017-10-14T05:05:14.915Z,13.28
2017-10-14T05:05:55.455Z,13.28
2017-10-14T05:06:35.993Z,13.28
2017-10-14T05:07:16.530Z,13.29
2017-10-14T05:07:57.070Z,13.3
2017-10-14T05:08:37.603Z,13.25
2017-10-14T05:09:18.139Z,13.32
2017-10-14T05:09:58.672Z,13.32
2017-10-14T05:10:39.210Z,13.3
2017-10-14T05:11:19.745Z,13.32
2017-10-14T05:12:00.290Z,13.28
2017-10-14T05:12:40.831Z,13.29
2017-10-14T05:13:21.401Z,13.28
2017-10-14T05:14:01.941Z,13.29
2017-10-14T05:14:42.509Z,13.26
2017-10-14T05:15:23.045Z,13.29
2017-10-14T05:16:03.669Z,13.25
2017-10-14T05:16:44.216Z,13.26
2017-10-14T05:17:24.750Z,13.26
2017-10-14T05:18:05.310Z,13.25
2017-10-14T05:18:45.913Z,13.23
2017-10-14T05:19:26.519Z,13.28
2017-10-14T05:20:07.053Z,13.26
2017-10-14T05:20:47.946Z,13.22
2017-10-14T05:21:28.551Z,13.29
2017-10-14T05:22:09.229Z,13.26
2017-10-14T05:22:49.761Z,13.26
2017-10-14T05:23:30.535Z,13.23
2017-10-14T05:24:11.255Z,13.29
2017-10-14T05:24:51.984Z,13.2
2017-10-14T05:25:32.648Z,13.2
2017-10-14T05:26:13.307Z,13.22
2017-10-14T05:26:53.837Z,13.19
2017-10-14T05:27:34.371Z,13.22
2017-10-14T05:28:14.910Z,13.26
2017-10-14T05:28:55.448Z,13.23
2017-10-14T05:29:35.984Z,13.25
2017-10-14T05:30:16.525Z,13.2
2017-10-14T05:30:57.060Z,13.25
2017-10-14T05:31:37.594Z,13.26
2017-10-14T05:32:18.135Z,13.25
2017-10-14T05:32:58.668Z,13.19
2017-10-14T05:33:39.202Z,13.19
2017-10-14T05:34:19.747Z,13.26
2017-10-14T05:35:00.296Z,13.2
2017-10-14T05:35:40.814Z,13.22
2017-10-14T05:36:21.350Z,13.25
2017-10-14T05:37:02.616Z,13.2
2017-10-14T05:37:43.154Z,13.19
2017-10-14T05:38:23.687Z,13.19
2017-10-14T05:39:04.226Z,13.14
2017-10-14T05:39:44.763Z,13.17
2017-10-14T05:40:25.299Z,13.15
2017-10-14T05:41:05.827Z,13.15
2017-10-14T05:41:46.364Z,13.11
2017-10-14T05:42:26.895Z,13.17
2017-10-14T05:43:07.432Z,13.2
2017-10-14T05:43:47.968Z,13.11
2017-10-14T05:44:28.518Z,13.14
2017-10-14T05:45:09.059Z,13.11
2017-10-14T05:45:49.586Z,13.12
2017-10-14T05:46:30.117Z,13.1
2017-10-14T05:47:10.655Z,13.08
2017-10-14T05:47:51.190Z,13.1
2017-10-14T05:48:31.727Z,13.11
2017-10-14T05:49:12.288Z,13.05
2017-10-14T05:49:52.830Z,13.07
2017-10-14T05:50:33.359Z,13.03
2017-10-14T05:51:13.904Z,13.08
2017-10-14T05:51:54.427Z,13.08
2017-10-14T05:52:35.007Z,13.08
2017-10-14T05:53:15.539Z,13.05
2017-10-14T05:53:56.106Z,13.03
2017-10-14T05:54:36.637Z,13.08
2017-10-14T05:55:17.241Z,13.04
2017-10-14T05:55:57.779Z,13.05
2017-10-14T05:56:38.509Z,12.96
2017-10-14T05:57:19.050Z,13.11
2017-10-14T05:57:59.605Z,13
2017-10-14T05:58:40.110Z,13.08
2017-10-14T05:59:20.645Z,13
2017-10-14T06:00:01.176Z,13.11
2017-10-14T06:00:41.709Z,13.08
2017-10-14T06:01:22.246Z,12.95
2017-10-14T06:02:02.796Z,13.05
2017-10-14T06:02:43.319Z,13
2017-10-14T06:03:23.849Z,13.03
2017-10-14T06:04:04.401Z,13.08
2017-10-14T06:04:44.913Z,13.05
2017-10-14T06:05:25.450Z,13.03
2017-10-14T06:06:05.991Z,13.05
2017-10-14T06:06:46.515Z,13.01
2017-10-14T06:07:27.054Z,13.01
2017-10-14T06:08:07.609Z,13.05
2017-10-14T06:08:48.157Z,13.08
2017-10-14T06:09:28.688Z,13.05
2017-10-14T06:10:09.216Z,13
2017-10-14T06:10:49.757Z,13.03
2017-10-14T06:11:30.281Z,13.01
2017-10-14T06:12:10.821Z,13.05
2017-10-14T06:12:51.355Z,13.05
2017-10-14T06:13:31.886Z,13.04
2017-10-14T06:14:12.419Z,13.05
2017-10-14T06:14:52.964Z,13.07
2017-10-14T06:15:33.494Z,13.08
2017-10-14T06:16:14.028Z,13.05
2017-10-14T06:16:54.566Z,13.05
2017-10-14T06:17:35.114Z,13.1
2017-10-14T06:18:15.681Z,13.11
2017-10-14T06:18:56.218Z,13.07
2017-10-14T06:19:36.807Z,13.1
2017-10-14T06:20:17.351Z,13.05
2017-10-14T06:20:57.882Z,13.14
2017-10-14T06:21:38.416Z,13.1
2017-10-14T06:22:18.970Z,13.1
2017-10-14T06:22:59.502Z,13.19
2017-10-14T06:23:40.247Z,13.15
2017-10-14T06:24:20.886Z,13.23
2017-10-14T06:25:01.412Z,13.19
2017-10-14T06:25:42.150Z,13.15
2017-10-14T06:26:22.738Z,13.19
2017-10-14T06:27:03.308Z,13.17
2017-10-14T06:27:44.490Z,13.15
2017-10-14T06:28:25.070Z,13.15
2017-10-14T06:29:05.607Z,13.17
2017-10-14T06:29:46.190Z,13.19
2017-10-14T06:30:26.721Z,13.11
2017-10-14T06:31:08.006Z,13.17
2017-10-14T06:31:48.545Z,13.19
2017-10-14T06:32:29.122Z,13.14
2017-10-14T06:33:09.712Z,13.19
2017-10-14T06:33:50.240Z,13.15
2017-10-14T06:34:30.779Z,13.23
2017-10-14T06:35:11.315Z,13.14
2017-10-14T06:35:51.934Z,13.17
2017-10-14T06:36:32.451Z,13.23
2017-10-14T06:37:13.038Z,13.12
2017-10-14T06:37:53.618Z,13.07
2017-10-14T06:38:34.921Z,13.25
2017-10-14T06:39:15.461Z,13.2
2017-10-14T06:39:56.117Z,13.28
2017-10-14T06:40:36.794Z,13.19
2017-10-14T06:41:17.305Z,13.19
2017-10-14T06:41:57.857Z,13.2
2017-10-14T06:42:38.454Z,13.15
2017-10-14T06:43:19.098Z,13.25
2017-10-14T06:43:59.647Z,13.15
2017-10-14T06:44:40.272Z,13.23
2017-10-14T06:45:20.785Z,13.25
2017-10-14T06:46:01.317Z,13.23
2017-10-14T06:46:41.852Z,13.23
2017-10-14T06:47:22.439Z,13.25
2017-10-14T06:48:02.962Z,13.25
2017-10-14T06:48:44.018Z,13.29
2017-10-14T06:49:24.647Z,13.25
2017-10-14T06:50:05.219Z,13.26
2017-10-14T06:50:45.766Z,13.28
2017-10-14T06:51:26.293Z,13.25
2017-10-14T06:52:07.119Z,13.28
2017-10-14T06:52:47.573Z,13.28
2017-10-14T06:53:28.925Z,13.26
2017-10-14T06:54:10.262Z,13.25
2017-10-14T06:54:51.539Z,13.22
2017-10-14T06:55:32.483Z,13.32
2017-10-14T06:56:13.125Z,13.26
2017-10-14T06:56:53.673Z,13.26
2017-10-14T06:57:34.398Z,13.26
2017-10-14T06:58:15.255Z,13.28
2017-10-14T06:58:55.945Z,13.28
2017-10-14T06:59:37.091Z,13.29
2017-10-14T07:00:17.815Z,13.26
2017-10-14T07:00:58.410Z,13.26
2017-10-14T07:01:39.795Z,13.23
2017-10-14T07:02:20.365Z,13.23
2017-10-14T07:03:01.737Z,13.22
2017-10-14T07:03:42.285Z,13.26
2017-10-14T07:04:23.331Z,13.26
2017-10-14T07:05:03.937Z,13.3
2017-10-14T07:05:44.833Z,13.28
2017-10-14T07:06:25.373Z,13.28
2017-10-14T07:07:05.915Z,13.28
2017-10-14T07:07:46.777Z,13.2
2017-10-14T07:08:27.600Z,13.29
2017-10-14T07:09:08.147Z,13.28
2017-10-14T07:09:48.683Z,13.39
2017-10-14T07:10:29.217Z,13.3
2017-10-14T07:11:09.741Z,13.33
2017-10-14T07:11:50.280Z,13.29
2017-10-14T07:12:30.821Z,13.41
2017-10-14T07:13:11.499Z,13.44
2017-10-14T07:13:52.044Z,13.46
2017-10-14T07:14:32.562Z,13.45
2017-10-14T07:15:13.100Z,13.42
2017-10-14T07:15:53.641Z,13.46
2017-10-14T07:16:34.176Z,13.44
2017-10-14T07:17:14.717Z,13.42
2017-10-14T07:17:55.255Z,13.42
2017-10-14T07:18:35.789Z,13.45
2017-10-14T07:19:16.379Z,13.42
2017-10-14T07:19:57.110Z,13.45
2017-10-14T07:20:37.644Z,13.46
2017-10-14T07:21:18.176Z,13.51
2017-10-14T07:21:58.711Z,13.44
2017-10-14T07:22:39.279Z,13.45
2017-10-14T07:23:19.831Z,13.48
2017-10-14T07:24:00.360Z,13.52
2017-10-14T07:24:40.899Z,13.59
2017-10-14T07:25:21.424Z,13.55
2017-10-14T07:26:01.973Z,13.55
2017-10-14T07:26:42.492Z,13.62
2017-10-14T07:27:23.031Z,13.54
2017-10-14T07:28:03.570Z,13.57
2017-10-14T07:28:44.108Z,13.64
2017-10-14T07:29:24.650Z,13.52
2017-10-14T07:30:05.174Z,13.57
2017-10-14T07:30:45.704Z,13.6
2017-10-14T07:31:26.243Z,13.62
2017-10-14T07:32:06.768Z,13.57
2017-10-14T07:32:47.306Z,13.57
2017-10-14T07:33:27.840Z,13.62
2017-10-14T07:34:08.377Z,13.6
2017-10-14T07:34:48.917Z,13.6
2017-10-14T07:35:29.459Z,13.67
2017-10-14T07:36:09.987Z,13.64
2017-10-14T07:36:50.521Z,13.66
2017-10-14T07:37:31.057Z,13.64
2017-10-14T07:38:11.594Z,13.67
2017-10-14T07:38:52.139Z,13.73
2017-10-14T07:39:32.711Z,13.7
2017-10-14T07:40:13.203Z,13.71
2017-10-14T07:40:53.740Z,13.7
2017-10-14T07:41:34.275Z,13.82
2017-10-14T07:42:14.813Z,13.81
2017-10-14T07:42:55.336Z,13.81
2017-10-14T07:43:35.873Z,13.87
2017-10-14T07:44:16.414Z,13.85
2017-10-14T07:44:56.951Z,13.82
2017-10-14T07:45:37.487Z,13.78
2017-10-14T07:46:18.022Z,13.85
2017-10-14T07:46:58.571Z,13.87
2017-10-14T07:47:39.092Z,13.89
2017-10-14T07:48:19.631Z,13.95
2017-10-14T07:49:00.171Z,13.97
2017-10-14T07:49:40.740Z,13.91
2017-10-14T07:50:21.286Z,14.02
2017-10-14T07:51:01.814Z,13.97
2017-10-14T07:51:42.352Z,13.99
2017-10-14T07:52:22.888Z,14.02
2017-10-14T07:53:03.479Z,14.07
2017-10-14T07:53:44.016Z,14.02
2017-10-14T07:54:24.555Z,14.03
2017-10-14T07:55:05.093Z,14.04
2017-10-14T07:55:45.634Z,14.04
2017-10-14T07:56:26.176Z,14.1
2017-10-14T07:57:06.714Z,14.14
2017-10-14T07:57:47.251Z,14.18
2017-10-14T07:58:27.791Z,14.17
2017-10-14T07:59:08.331Z,14.24
2017-10-14T07:59:48.864Z,14.2
2017-10-14T08:00:29.409Z,14.21
2017-10-14T08:01:09.945Z,14.24
2017-10-14T08:01:50.489Z,14.2
2017-10-14T08:02:31.024Z,14.27
2017-10-14T08:03:11.581Z,14.25
2017-10-14T08:03:52.117Z,14.27
2017-10-14T08:04:32.664Z,14.24
2017-10-14T08:05:13.198Z,14.28
2017-10-14T08:05:53.767Z,14.35
2017-10-14T08:06:34.301Z,14.43
2017-10-14T08:07:14.844Z,14.39
2017-10-14T08:07:55.404Z,14.46
2017-10-14T08:08:35.940Z,14.46
2017-10-14T08:09:16.467Z,14.45
2017-10-14T08:09:57.045Z,14.43
2017-10-14T08:10:37.582Z,14.51
2017-10-14T08:11:18.110Z,14.51
2017-10-14T08:11:58.648Z,14.54
2017-10-14T08:12:39.184Z,14.61
2017-10-14T08:13:19.807Z,14.62
2017-10-14T08:14:00.341Z,14.61
2017-10-14T08:14:40.876Z,14.65
2017-10-14T08:15:21.417Z,14.77
2017-10-14T08:16:01.957Z,14.77
2017-10-14T08:16:42.493Z,14.73
2017-10-14T08:17:23.029Z,14.8
2017-10-14T08:18:03.562Z,14.84
2017-10-14T08:18:44.101Z,14.78
2017-10-14T08:19:24.630Z,14.8
2017-10-14T08:20:05.173Z,14.88
2017-10-14T08:20:45.713Z,14.84
2017-10-14T08:21:26.253Z,14.86
2017-10-14T08:22:06.787Z,14.91
2017-10-14T08:22:47.320Z,14.92
2017-10-14T08:23:27.858Z,14.98
2017-10-14T08:24:08.397Z,14.96
2017-10-14T08:24:48.936Z,14.94
2017-10-14T08:25:29.473Z,15.07
2017-10-14T08:26:10.014Z,15.06
2017-10-14T08:26:50.554Z,15.13
2017-10-14T08:27:31.081Z,15.07
2017-10-14T08:28:11.631Z,15.16
2017-10-14T08:28:52.166Z,15.09
2017-10-14T08:29:32.710Z,15.17
2017-10-14T08:30:13.241Z,15.17
2017-10-14T08:30:53.782Z,15.2
2017-10-14T08:31:34.319Z,15.31
2017-10-14T08:32:14.861Z,15.27
2017-10-14T08:32:55.390Z,15.31
2017-10-14T08:33:35.936Z,15.44
2017-10-14T08:34:16.470Z,15.43
2017-10-14T08:34:57.000Z,15.57
2017-10-14T08:35:37.544Z,15.56
2017-10-14T08:36:18.072Z,15.72
2017-10-14T08:36:58.610Z,15.71
2017-10-14T08:37:39.150Z,15.75
2017-10-14T08:38:19.683Z,15.87
2017-10-14T08:39:00.239Z,15.96
2017-10-14T08:39:40.754Z,16.04
2017-10-14T08:40:21.302Z,15.96
2017-10-14T08:41:01.842Z,16.07
2017-10-14T08:41:42.380Z,16.23
2017-10-14T08:42:22.920Z,16.25
2017-10-14T08:43:03.448Z,16.41
2017-10-14T08:43:43.992Z,16.49
2017-10-14T08:44:24.530Z,16.66